Terminal Aerodrome Forecast
Issued by NWS

Home | Current Version | Previous Version | Text Only | Print | Product List | Glossary On
Versions: 1 2 3 4 5 6 7 8 9 10 11 12 13 14 15 16 17 18 19 20 21 22 23 24 25 26 27 28 29 30 31 32 33 34
000
FTUS45 KCYS 262325
TAFAIA
TAF
KAIA 262325Z 2700/2724 02010KT 5SM -SN BR OVC015
      TEMPO 2700/2702 2SM -SN BR OVC009
     FM270200 36008KT 2SM BR OVC012
     FM270800 28007KT 4SM BR OVC022
     FM271500 27011KT P6SM BKN060=

USA.gov is the U.S. government's official web portal to all federal, state and local government web resources and services.